Aiken, Texas
Current Conditions -  °F | °C
As of 10:55 AM on Sunday 23 Nov 2014 (Local Time) from KPVW Reporting Station
Clear Clear  
Wind Chill: 14°   Ceiling: Unl
Heat Index: 14°   Visibility: 10mi
Dew Point: -2°   Wind: 29mph
Humidity: 33%   Direction: 350°N
Pressure: 29.62"   Gusts: NA
Location:  34.14°N, 101.53°W
Report Text: KPVW 231655Z AUTO 35025KT 10SM CLR 14/M02 A2962 RMK AO2 T01411019
Loading
Personal Weather Stations






























Interactive Weather Map New forecast layout! Learn more

10-Day Weather Forecast

Advertisements
Track Severe Weather on mobile